SBPB

Prefeito Doutor João Silva Filho Airport

Parnaíba, Brazil
TAF SBPB 162100Z 1700/1724 05010KT 9000 SCT015 TN25/1708Z TX32/1717Z PROB40 1700/1703 TS SCT015 FEW030CB RMK PCN
Issued Valid From Valid To
Jan-16 @ 21:00 UTC
(8 hours ago)
Jan-17 @ 00:00 UTC
(5 hours ago)
Jan-18 @ 00:00 UTC
(in 19 hours)
Jan-17 @ 00:00 to Jan-18 @ 00:00
TAF SBPB 162100Z 1700/1724 05010KT 9000 SCT015 TN25/1708Z TX32/1717Z
Wind Visibility Clouds
50° at 10 knots 8,996 meters
  • Scattered at 1,500' AGL
Expired Click to View Jan-17 @ 00:00 to Jan-17 @ 03:00
PROB40 1700/1703 TS SCT015 FEW030CB RMK PCN
Clouds Conditions
  • Scattered at 1,500' AGL
  • Few at 3,000' AGL
  • Thunderstorm
TAF SBPB 162100Z 1700/1724 05010KT 9000 SCT015 TN25/1708Z TX32/1717Z PROB40 1700/1703 TS SCT015 FEW030CB RMK PCN
Issued Jan-16 @ 21:00 UTC
(8 hours ago)
Valid From Jan-17 @ 00:00 UTC
(5 hours ago)
Valid To Jan-18 @ 00:00 UTC
(in 19 hours)
Jan-17 @ 00:00 - Jan-18 @ 00:00
Wind Visibility
50° at 10 knots 8,996 meters
Clouds
  • Scattered at 1,500' AGL
Jan-17 @ 00:00 - Jan-17 @ 03:00
Clouds
  • Scattered at 1,500' AGL
  • Few at 3,000' AGL
Conditions
  • Thunderstorm